createdAt,value
2017-10-13T00:00:34.908Z,99.99
2017-10-13T00:01:34.905Z,99.99
2017-10-13T00:02:34.905Z,99.99
2017-10-13T00:03:34.903Z,99.99
2017-10-13T00:04:34.900Z,99.99
2017-10-13T00:05:34.899Z,99.99
2017-10-13T00:06:34.897Z,99.99
2017-10-13T00:07:34.894Z,99.99
2017-10-13T00:08:34.890Z,99.99
2017-10-13T00:09:34.889Z,99.99
2017-10-13T00:10:34.887Z,99.99
2017-10-13T00:11:34.887Z,99.99
2017-10-13T00:12:34.882Z,99.99
2017-10-13T00:13:34.882Z,99.99
2017-10-13T00:14:34.879Z,99.99
2017-10-13T00:15:34.875Z,99.99
2017-10-13T00:16:34.873Z,99.99
2017-10-13T00:17:34.872Z,99.99
2017-10-13T00:18:34.870Z,99.99
2017-10-13T00:19:34.867Z,99.99
2017-10-13T00:20:34.865Z,99.99
2017-10-13T00:21:34.863Z,99.99
2017-10-13T00:22:34.861Z,99.99
2017-10-13T00:23:34.858Z,99.99
2017-10-13T00:24:34.856Z,99.99
2017-10-13T00:25:34.854Z,99.99
2017-10-13T00:26:34.851Z,99.99
2017-10-13T00:27:34.849Z,99.99
2017-10-13T00:28:34.846Z,99.99
2017-10-13T00:29:34.845Z,99.99
2017-10-13T00:30:34.843Z,99.99
2017-10-13T00:31:34.838Z,99.99
2017-10-13T00:32:34.834Z,99.99
2017-10-13T00:33:34.833Z,99.99
2017-10-13T00:34:34.832Z,99.99
2017-10-13T00:35:34.829Z,99.99
2017-10-13T00:36:34.824Z,99.99
2017-10-13T00:37:34.823Z,99.99
2017-10-13T00:38:34.819Z,99.99
2017-10-13T00:39:34.819Z,99.99
2017-10-13T00:40:34.816Z,99.99
2017-10-13T00:41:34.812Z,99.99
2017-10-13T00:42:34.811Z,99.99
2017-10-13T00:43:34.806Z,99.99
2017-10-13T00:44:34.802Z,99.99
2017-10-13T00:45:34.803Z,99.99
2017-10-13T00:46:34.800Z,99.99
2017-10-13T00:47:34.796Z,99.99
2017-10-13T00:48:34.797Z,99.99
2017-10-13T00:49:34.789Z,99.99
2017-10-13T00:50:34.792Z,99.99
2017-10-13T00:51:34.786Z,99.99
2017-10-13T00:52:34.781Z,99.99
2017-10-13T00:53:34.779Z,99.99
2017-10-13T00:54:34.776Z,99.99
2017-10-13T00:55:34.773Z,99.99
2017-10-13T00:56:34.771Z,99.99
2017-10-13T00:57:34.766Z,99.99
2017-10-13T00:58:34.765Z,99.99
2017-10-13T00:59:34.761Z,99.99
2017-10-13T01:00:34.758Z,99.99
2017-10-13T01:01:34.756Z,99.99
2017-10-13T01:02:34.758Z,99.99
2017-10-13T01:03:34.750Z,99.99
2017-10-13T01:04:34.746Z,99.99
2017-10-13T01:05:34.743Z,99.99
2017-10-13T01:06:34.739Z,99.99
2017-10-13T01:07:34.738Z,99.99
2017-10-13T01:08:34.733Z,99.99
2017-10-13T01:09:34.732Z,99.99
2017-10-13T01:10:34.729Z,99.99
2017-10-13T01:11:34.723Z,99.99
2017-10-13T01:12:34.720Z,99.99
2017-10-13T01:13:34.721Z,99.99
2017-10-13T01:14:34.715Z,99.99
2017-10-13T01:15:34.714Z,99.99
2017-10-13T01:16:34.707Z,99.99
2017-10-13T01:17:34.705Z,99.99
2017-10-13T01:18:34.703Z,99.99
2017-10-13T01:19:34.700Z,99.99
2017-10-13T01:20:34.694Z,99.99
2017-10-13T01:21:34.693Z,99.99
2017-10-13T01:22:34.689Z,99.99
2017-10-13T01:23:34.687Z,99.99
2017-10-13T01:24:34.682Z,99.99
2017-10-13T01:25:34.680Z,99.99
2017-10-13T01:26:34.677Z,99.99
2017-10-13T01:27:34.674Z,99.99
2017-10-13T01:28:34.670Z,99.99
2017-10-13T01:29:34.667Z,99.99
2017-10-13T01:30:34.663Z,99.99
2017-10-13T01:31:34.661Z,99.99
2017-10-13T01:32:34.656Z,99.99
2017-10-13T01:33:34.654Z,99.99
2017-10-13T01:34:34.654Z,99.99
2017-10-13T01:35:34.647Z,99.99
2017-10-13T01:36:34.643Z,99.99
2017-10-13T01:37:34.640Z,99.99
2017-10-13T01:38:34.637Z,99.99
2017-10-13T01:39:34.634Z,99.99
2017-10-13T01:40:34.630Z,99.99
2017-10-13T01:41:34.627Z,99.99
2017-10-13T01:42:34.624Z,99.99
2017-10-13T01:43:34.620Z,99.99
2017-10-13T01:44:34.616Z,99.99
2017-10-13T01:45:34.613Z,99.99
2017-10-13T01:46:34.611Z,99.99
2017-10-13T01:47:34.606Z,99.99
2017-10-13T01:48:34.601Z,99.99
2017-10-13T01:49:34.600Z,99.99
2017-10-13T01:50:34.596Z,99.99
2017-10-13T01:51:34.593Z,99.99
2017-10-13T01:52:34.588Z,99.99
2017-10-13T01:53:34.586Z,99.99
2017-10-13T01:54:34.583Z,99.99
2017-10-13T01:55:34.580Z,99.99
2017-10-13T01:56:34.577Z,99.99
2017-10-13T01:57:34.572Z,99.99
2017-10-13T01:58:34.570Z,99.99
2017-10-13T01:59:34.566Z,99.99
2017-10-13T02:00:34.563Z,99.99
2017-10-13T02:01:34.558Z,99.99
2017-10-13T02:02:34.556Z,99.99
2017-10-13T02:03:34.554Z,99.99
2017-10-13T02:04:34.551Z,99.99
2017-10-13T02:05:34.547Z,99.99
2017-10-13T02:06:34.543Z,99.99
2017-10-13T02:07:34.541Z,99.99
2017-10-13T02:08:34.537Z,99.99
2017-10-13T02:09:34.535Z,99.99
2017-10-13T02:10:34.531Z,99.99
2017-10-13T02:11:34.526Z,99.99
2017-10-13T02:12:34.522Z,99.99
2017-10-13T02:13:34.520Z,99.99
2017-10-13T02:14:34.517Z,99.99
2017-10-13T02:15:34.513Z,99.99
2017-10-13T02:16:34.510Z,99.99
2017-10-13T02:17:34.511Z,99.99
2017-10-13T02:18:34.505Z,99.99
2017-10-13T02:19:34.501Z,99.99
2017-10-13T02:20:34.495Z,99.99
2017-10-13T02:21:34.493Z,99.99
2017-10-13T02:22:34.490Z,99.99
2017-10-13T02:23:34.487Z,99.99
2017-10-13T02:24:34.482Z,99.99
2017-10-13T02:25:34.480Z,99.99
2017-10-13T02:26:34.480Z,99.99
2017-10-13T02:27:34.475Z,99.99
2017-10-13T02:28:34.470Z,99.99
2017-10-13T02:29:34.466Z,99.99
2017-10-13T02:30:34.463Z,99.99
2017-10-13T02:31:34.460Z,99.99
2017-10-13T02:32:34.455Z,99.99
2017-10-13T02:33:34.453Z,99.99
2017-10-13T02:34:34.450Z,99.99
2017-10-13T02:35:34.446Z,99.99
2017-10-13T02:36:34.442Z,99.99
2017-10-13T02:37:34.440Z,99.99
2017-10-13T02:38:34.436Z,99.99
2017-10-13T02:39:34.433Z,99.99
2017-10-13T02:40:34.429Z,99.99
2017-10-13T02:41:34.425Z,99.99
2017-10-13T02:42:34.423Z,99.99
2017-10-13T02:43:34.420Z,99.99
2017-10-13T02:44:34.416Z,99.99
2017-10-13T02:45:34.416Z,99.99
2017-10-13T02:46:34.406Z,99.99
2017-10-13T02:47:34.405Z,99.99
2017-10-13T02:48:34.401Z,99.99
2017-10-13T02:49:34.397Z,99.99
2017-10-13T02:50:34.394Z,99.99
2017-10-13T02:51:34.390Z,99.99
2017-10-13T02:52:34.386Z,99.99
2017-10-13T02:53:34.383Z,99.99
2017-10-13T02:54:34.383Z,99.99
2017-10-13T02:55:34.376Z,99.99
2017-10-13T02:56:34.373Z,99.99
2017-10-13T02:57:34.369Z,99.99
2017-10-13T02:58:34.365Z,99.99
2017-10-13T02:59:34.365Z,99.99
2017-10-13T03:00:34.360Z,99.99
2017-10-13T03:01:34.354Z,99.99
2017-10-13T03:02:34.349Z,99.99
2017-10-13T03:03:34.347Z,99.99
2017-10-13T03:04:34.344Z,99.99
2017-10-13T03:05:34.341Z,99.99
2017-10-13T03:06:34.337Z,99.99
2017-10-13T03:07:34.334Z,99.99
2017-10-13T03:08:34.332Z,99.99
2017-10-13T03:09:34.327Z,99.99
2017-10-13T03:10:34.323Z,99.99
2017-10-13T03:11:34.320Z,99.99
2017-10-13T03:12:34.317Z,99.99
2017-10-13T03:13:34.312Z,99.99
2017-10-13T03:14:34.309Z,99.99
2017-10-13T03:15:34.308Z,99.99
2017-10-13T03:16:34.304Z,99.99
2017-10-13T03:17:34.299Z,99.99
2017-10-13T03:18:34.298Z,99.99
2017-10-13T03:19:34.295Z,99.99
2017-10-13T03:20:34.290Z,99.99
2017-10-13T03:21:34.288Z,99.99
2017-10-13T03:22:34.284Z,99.99
2017-10-13T03:23:34.283Z,99.99
2017-10-13T03:24:34.282Z,99.99
2017-10-13T03:25:34.277Z,99.99
2017-10-13T03:26:34.274Z,99.99
2017-10-13T03:27:34.269Z,99.99
2017-10-13T03:28:34.267Z,99.99
2017-10-13T03:29:34.266Z,99.99
2017-10-13T03:30:34.262Z,99.99
2017-10-13T03:31:34.258Z,99.99
2017-10-13T03:32:34.253Z,99.99
2017-10-13T03:33:34.251Z,99.99
2017-10-13T03:34:34.248Z,99.99
2017-10-13T03:35:34.246Z,99.99
2017-10-13T03:36:34.242Z,99.99
2017-10-13T03:37:34.239Z,99.99
2017-10-13T03:38:34.237Z,99.99
2017-10-13T03:39:34.235Z,99.99
2017-10-13T03:40:34.230Z,99.99
2017-10-13T03:41:34.226Z,99.99
2017-10-13T03:42:34.228Z,99.99
2017-10-13T03:43:34.222Z,99.99
2017-10-13T03:44:34.223Z,99.99
2017-10-13T03:45:34.215Z,99.99
2017-10-13T03:46:34.213Z,99.99
2017-10-13T03:47:34.212Z,99.99
2017-10-13T03:48:34.207Z,99.99
2017-10-13T03:49:34.201Z,99.99
2017-10-13T03:50:34.199Z,99.99
2017-10-13T03:51:34.197Z,99.99
2017-10-13T03:52:34.195Z,99.99
2017-10-13T03:53:34.192Z,99.99
2017-10-13T03:54:34.187Z,99.99
2017-10-13T03:55:34.185Z,99.99
2017-10-13T03:56:34.181Z,99.99
2017-10-13T03:57:34.179Z,99.99
2017-10-13T03:58:34.176Z,99.99
2017-10-13T03:59:34.173Z,99.99
2017-10-13T04:00:34.174Z,99.99
2017-10-13T04:01:34.167Z,99.99
2017-10-13T04:02:34.163Z,99.99
2017-10-13T04:03:34.161Z,99.99
2017-10-13T04:04:34.156Z,99.99
2017-10-13T04:05:34.155Z,99.99
2017-10-13T04:06:34.154Z,99.99
2017-10-13T04:07:34.149Z,99.99
2017-10-13T04:08:34.145Z,99.99
2017-10-13T04:09:34.142Z,99.99
2017-10-13T04:10:34.139Z,99.99
2017-10-13T04:11:34.136Z,99.99
2017-10-13T04:12:34.132Z,99.99
2017-10-13T04:13:34.130Z,99.99
2017-10-13T04:14:34.136Z,99.99
2017-10-13T04:15:34.125Z,99.99
2017-10-13T04:16:34.140Z,99.99
2017-10-13T04:17:34.117Z,99.99
2017-10-13T04:18:34.115Z,99.99
2017-10-13T04:19:34.112Z,99.99
2017-10-13T04:20:34.109Z,99.99
2017-10-13T04:21:34.107Z,99.99
2017-10-13T04:22:34.102Z,99.99
2017-10-13T04:23:34.099Z,99.99
2017-10-13T04:24:34.098Z,99.99
2017-10-13T04:25:34.098Z,99.99
2017-10-13T04:26:34.090Z,99.99
2017-10-13T04:27:34.087Z,99.99
2017-10-13T04:28:34.084Z,99.99
2017-10-13T04:29:34.083Z,99.99
2017-10-13T04:30:34.079Z,99.99
2017-10-13T04:31:34.075Z,99.99
2017-10-13T04:32:34.073Z,99.99
2017-10-13T04:33:34.070Z,99.99
2017-10-13T04:34:34.067Z,99.99
2017-10-13T04:35:34.063Z,99.99
2017-10-13T04:36:34.060Z,99.99
2017-10-13T04:37:34.058Z,99.99
2017-10-13T04:38:34.055Z,99.99
2017-10-13T04:39:34.051Z,99.99
2017-10-13T04:40:34.048Z,99.99
2017-10-13T04:41:34.045Z,99.99
2017-10-13T04:42:34.043Z,99.99
2017-10-13T04:43:34.041Z,99.99
2017-10-13T04:44:34.037Z,99.99
2017-10-13T04:45:34.034Z,99.99
2017-10-13T04:46:34.031Z,99.99
2017-10-13T04:47:34.029Z,99.99
2017-10-13T04:48:34.036Z,99.99
2017-10-13T04:49:34.022Z,99.99
2017-10-13T04:50:34.018Z,99.99
2017-10-13T04:51:34.017Z,99.99
2017-10-13T04:52:34.019Z,99.99
2017-10-13T04:53:34.011Z,99.99
2017-10-13T04:54:34.005Z,99.99
2017-10-13T04:55:34.004Z,99.99
2017-10-13T04:56:34.000Z,99.99
2017-10-13T04:57:33.999Z,99.99
2017-10-13T04:58:33.995Z,99.99
2017-10-13T04:59:33.991Z,99.99
2017-10-13T05:00:33.990Z,99.99
2017-10-13T05:01:33.987Z,99.99
2017-10-13T05:02:33.984Z,99.99
2017-10-13T05:03:33.980Z,99.99
2017-10-13T05:04:33.982Z,99.99
2017-10-13T05:05:33.976Z,99.99
2017-10-13T05:06:33.973Z,99.99
2017-10-13T05:07:33.969Z,99.99
2017-10-13T05:08:33.973Z,99.99
2017-10-13T05:09:33.965Z,99.99
2017-10-13T05:10:33.962Z,99.99
2017-10-13T05:11:33.964Z,99.99
2017-10-13T05:12:33.955Z,99.99
2017-10-13T05:13:33.954Z,99.99
2017-10-13T05:14:33.952Z,99.99
2017-10-13T05:15:33.949Z,99.99
2017-10-13T05:16:33.945Z,99.99
2017-10-13T05:17:33.943Z,99.99
2017-10-13T05:18:33.941Z,99.99
2017-10-13T05:19:33.940Z,99.99
2017-10-13T05:20:33.935Z,99.99
2017-10-13T05:21:33.934Z,99.99
2017-10-13T05:22:33.933Z,99.99
2017-10-13T05:23:33.962Z,99.99
2017-10-13T05:24:33.926Z,99.99
2017-10-13T05:25:33.923Z,99.99
2017-10-13T05:26:33.924Z,99.99
2017-10-13T05:27:33.919Z,99.99
2017-10-13T05:28:33.915Z,99.99
2017-10-13T05:29:33.915Z,99.99
2017-10-13T05:30:33.912Z,99.99
2017-10-13T05:31:33.911Z,99.99
2017-10-13T05:32:33.908Z,99.99
2017-10-13T05:33:33.904Z,99.99
2017-10-13T05:34:33.903Z,99.99
2017-10-13T05:35:33.899Z,99.99
2017-10-13T05:36:33.898Z,99.99
2017-10-13T05:37:33.895Z,99.99
2017-10-13T05:38:33.893Z,99.99
2017-10-13T05:39:33.890Z,99.99
2017-10-13T05:40:33.888Z,99.99
2017-10-13T05:41:33.886Z,99.99
2017-10-13T05:42:33.884Z,99.99
2017-10-13T05:43:33.881Z,99.99
2017-10-13T05:44:33.878Z,99.99
2017-10-13T05:45:33.878Z,99.99
2017-10-13T05:46:33.874Z,99.99
2017-10-13T05:47:33.871Z,99.99
2017-10-13T05:48:33.868Z,99.99
2017-10-13T05:49:33.869Z,99.99
2017-10-13T05:50:33.865Z,99.99
2017-10-13T05:51:33.864Z,99.99
2017-10-13T05:52:33.861Z,99.99
2017-10-13T05:53:33.861Z,99.99
2017-10-13T05:54:33.858Z,99.99
2017-10-13T05:55:33.855Z,99.99
2017-10-13T05:56:33.853Z,99.99
2017-10-13T05:57:33.851Z,99.99
2017-10-13T05:58:33.849Z,99.99
2017-10-13T05:59:33.847Z,99.99
2017-10-13T06:00:33.845Z,99.99
2017-10-13T06:01:33.842Z,99.99
2017-10-13T06:02:33.841Z,99.99
2017-10-13T06:03:33.840Z,99.99
2017-10-13T06:04:33.850Z,99.99
2017-10-13T06:05:33.834Z,99.99
2017-10-13T06:06:33.834Z,99.99
2017-10-13T06:07:33.832Z,99.99
2017-10-13T06:08:33.829Z,99.99
2017-10-13T06:09:33.826Z,99.99
2017-10-13T06:10:33.827Z,99.99
2017-10-13T06:11:33.824Z,99.99
2017-10-13T06:12:33.821Z,99.99
2017-10-13T06:13:33.820Z,99.99
2017-10-13T06:14:33.818Z,99.99
2017-10-13T06:15:33.817Z,99.99
2017-10-13T06:16:33.813Z,99.99
2017-10-13T06:17:33.814Z,99.99
2017-10-13T06:18:33.811Z,99.99
2017-10-13T06:19:33.810Z,99.99
2017-10-13T06:20:33.806Z,99.99
2017-10-13T06:21:33.805Z,99.99
2017-10-13T06:22:33.804Z,99.99
2017-10-13T06:23:33.803Z,99.99
2017-10-13T06:24:33.799Z,99.99
2017-10-13T06:25:33.798Z,99.99
2017-10-13T06:26:33.798Z,99.99
2017-10-13T06:27:33.796Z,99.99
2017-10-13T06:28:33.792Z,99.99
2017-10-13T06:29:33.791Z,99.99
2017-10-13T06:30:33.789Z,99.99
2017-10-13T06:31:33.791Z,99.99
2017-10-13T06:32:33.787Z,99.99
2017-10-13T06:33:33.784Z,99.99
2017-10-13T06:34:33.782Z,99.99
2017-10-13T06:35:33.784Z,99.99
2017-10-13T06:36:33.781Z,99.99
2017-10-13T06:37:33.778Z,99.99
2017-10-13T06:38:33.776Z,99.99
2017-10-13T06:39:33.775Z,99.99
2017-10-13T06:40:33.773Z,99.99
2017-10-13T06:41:33.771Z,99.99
2017-10-13T06:42:33.769Z,99.99
2017-10-13T06:43:33.768Z,99.99
2017-10-13T06:44:33.765Z,99.99
2017-10-13T06:45:33.766Z,99.99
2017-10-13T06:46:33.765Z,99.99
2017-10-13T06:47:33.762Z,99.99
2017-10-13T06:48:33.761Z,99.99
2017-10-13T06:49:33.759Z,99.99
2017-10-13T06:50:33.758Z,99.99
2017-10-13T06:51:33.757Z,99.99
2017-10-13T06:52:33.755Z,99.99
2017-10-13T06:53:33.753Z,99.99
2017-10-13T06:54:33.753Z,99.99
2017-10-13T06:55:33.759Z,99.99
2017-10-13T06:56:33.757Z,99.99
2017-10-13T06:57:33.749Z,99.99
2017-10-13T06:58:33.748Z,99.99
2017-10-13T06:59:33.748Z,99.99
2017-10-13T07:00:33.744Z,99.99
2017-10-13T07:01:33.744Z,99.99
2017-10-13T07:02:33.742Z,99.99
2017-10-13T07:03:33.742Z,99.99
2017-10-13T07:04:33.740Z,99.99
2017-10-13T07:05:33.738Z,99.99
2017-10-13T07:06:33.739Z,99.99
2017-10-13T07:07:33.738Z,99.99
2017-10-13T07:08:33.736Z,99.99
2017-10-13T07:09:33.734Z,99.99
2017-10-13T07:10:33.733Z,99.99
2017-10-13T07:11:33.732Z,99.99
2017-10-13T07:12:33.732Z,99.99
2017-10-13T07:13:33.731Z,99.99
2017-10-13T07:14:33.730Z,99.99
2017-10-13T07:15:33.730Z,99.99
2017-10-13T07:16:33.727Z,99.99
2017-10-13T07:17:33.726Z,99.99
2017-10-13T07:18:33.727Z,99.99
2017-10-13T07:19:33.727Z,99.99
2017-10-13T07:20:33.723Z,99.99
2017-10-13T07:21:33.724Z,99.99
2017-10-13T07:22:33.723Z,99.99
2017-10-13T07:23:33.724Z,99.99
2017-10-13T07:24:33.722Z,99.99
2017-10-13T07:25:33.722Z,99.99
2017-10-13T07:26:33.721Z,99.99
2017-10-13T07:27:33.723Z,99.99
2017-10-13T07:28:33.720Z,99.99
2017-10-13T07:29:33.721Z,99.99
2017-10-13T07:30:33.720Z,99.99
2017-10-13T07:31:33.719Z,99.99
2017-10-13T07:32:33.719Z,99.99
2017-10-13T07:33:33.720Z,99.99
2017-10-13T07:34:33.719Z,99.99
2017-10-13T07:35:33.719Z,99.99
2017-10-13T07:36:33.717Z,99.99
2017-10-13T07:37:33.718Z,99.99
2017-10-13T07:38:33.717Z,99.99
2017-10-13T07:39:33.716Z,99.99
2017-10-13T07:40:33.718Z,99.99
2017-10-13T07:41:33.716Z,99.99
2017-10-13T07:42:33.718Z,99.99
2017-10-13T07:43:33.716Z,99.99
2017-10-13T07:44:33.720Z,99.99
2017-10-13T07:45:33.721Z,99.99
2017-10-13T07:46:33.716Z,99.99
2017-10-13T07:47:33.716Z,99.99
2017-10-13T07:48:33.716Z,99.99
2017-10-13T07:49:33.716Z,99.99
2017-10-13T07:50:33.717Z,99.99
2017-10-13T07:51:33.715Z,99.99
2017-10-13T07:52:33.715Z,99.99
2017-10-13T07:53:33.717Z,99.99
2017-10-13T07:54:33.716Z,99.99
2017-10-13T07:55:33.715Z,99.99
2017-10-13T07:56:33.720Z,99.99
2017-10-13T07:57:33.716Z,99.99
2017-10-13T07:58:33.715Z,99.99
2017-10-13T07:59:33.723Z,99.99
2017-10-13T08:00:33.716Z,99.99
2017-10-13T08:01:33.716Z,99.99
2017-10-13T08:02:33.716Z,99.99
2017-10-13T08:03:33.717Z,99.99
2017-10-13T08:04:33.716Z,99.99
2017-10-13T08:05:33.718Z,99.99
2017-10-13T08:06:33.718Z,99.99
2017-10-13T08:07:33.718Z,99.99
2017-10-13T08:08:33.717Z,99.99
2017-10-13T08:09:33.719Z,99.99
2017-10-13T08:10:33.719Z,99.99
2017-10-13T08:11:33.719Z,99.99
2017-10-13T08:12:33.719Z,99.99
2017-10-13T08:13:33.720Z,99.99
2017-10-13T08:14:33.721Z,99.99
2017-10-13T08:15:33.722Z,99.99
2017-10-13T08:16:33.727Z,99.99
2017-10-13T08:17:33.721Z,99.99
2017-10-13T08:18:33.724Z,99.99
2017-10-13T08:19:33.724Z,99.99
2017-10-13T08:20:33.726Z,99.99
2017-10-13T08:21:33.724Z,99.99
2017-10-13T08:22:33.724Z,99.99
2017-10-13T08:23:33.725Z,99.99
2017-10-13T08:24:33.725Z,99.99
2017-10-13T08:25:33.727Z,99.99
2017-10-13T08:26:33.726Z,99.99
2017-10-13T08:27:33.729Z,99.99
2017-10-13T08:28:33.729Z,99.99
2017-10-13T08:29:33.730Z,99.99
2017-10-13T08:30:33.731Z,99.99
2017-10-13T08:31:33.732Z,99.99
2017-10-13T08:32:33.733Z,99.99
2017-10-13T08:33:33.736Z,99.99
2017-10-13T08:34:33.734Z,99.99
2017-10-13T08:35:33.745Z,99.99
2017-10-13T08:36:33.737Z,99.99
2017-10-13T08:37:33.738Z,99.99
2017-10-13T08:38:33.740Z,99.99
2017-10-13T08:39:33.742Z,99.99
2017-10-13T08:40:33.743Z,99.99
2017-10-13T08:41:33.743Z,99.99
2017-10-13T08:42:33.745Z,99.99
2017-10-13T08:43:33.747Z,99.99
2017-10-13T08:44:33.748Z,99.99
2017-10-13T08:45:33.747Z,99.99
2017-10-13T08:46:33.752Z,99.99
2017-10-13T08:47:33.751Z,99.99
2017-10-13T08:48:33.753Z,99.99
2017-10-13T08:49:33.755Z,99.99
2017-10-13T08:50:33.757Z,99.99
2017-10-13T08:51:33.758Z,99.99
2017-10-13T08:52:33.760Z,99.99
2017-10-13T08:53:33.762Z,99.99
2017-10-13T08:54:33.763Z,99.99
2017-10-13T08:55:33.764Z,99.99
2017-10-13T08:56:33.767Z,99.99
2017-10-13T08:57:33.767Z,99.99
2017-10-13T08:58:33.768Z,99.99
2017-10-13T08:59:33.770Z,99.99
2017-10-13T09:00:33.771Z,99.99
2017-10-13T09:01:33.772Z,99.99
2017-10-13T09:02:33.775Z,99.99
2017-10-13T09:03:33.776Z,99.99
2017-10-13T09:04:33.779Z,99.99
2017-10-13T09:05:33.781Z,99.99
2017-10-13T09:06:33.780Z,99.99
2017-10-13T09:08:33.784Z,99.99
2017-10-13T09:09:33.786Z,99.99
2017-10-13T09:10:33.787Z,99.99
2017-10-13T09:11:33.789Z,99.99
2017-10-13T09:12:33.790Z,99.99
2017-10-13T09:13:33.792Z,99.99
2017-10-13T09:14:33.792Z,99.99
2017-10-13T09:15:33.795Z,99.99
2017-10-13T09:16:33.795Z,99.99
2017-10-13T09:17:33.799Z,99.99
2017-10-13T09:18:33.799Z,99.99
2017-10-13T09:19:33.802Z,99.24
2017-10-13T09:20:33.802Z,99.43
2017-10-13T09:21:33.804Z,98.47
2017-10-13T09:22:33.806Z,98.76
2017-10-13T09:23:33.809Z,98.76
2017-10-13T09:24:33.809Z,98.66
2017-10-13T09:25:33.811Z,98.66
2017-10-13T09:26:33.812Z,98.00
2017-10-13T09:27:33.815Z,98.95
2017-10-13T09:28:33.815Z,98.09
2017-10-13T09:29:33.819Z,97.09
2017-10-13T09:30:33.820Z,94.35
2017-10-13T09:31:33.824Z,95.22
2017-10-13T09:32:33.823Z,94.89
2017-10-13T09:33:33.827Z,93.21
2017-10-13T09:34:33.829Z,91.42
2017-10-13T09:35:33.831Z,90.37
2017-10-13T09:36:33.834Z,89.99
2017-10-13T09:37:33.838Z,90.52
2017-10-13T09:38:33.840Z,92.10
2017-10-13T09:39:33.843Z,92.82
2017-10-13T09:40:33.844Z,94.07
2017-10-13T09:41:33.852Z,94.64
2017-10-13T09:42:33.852Z,95.17
2017-10-13T09:43:33.856Z,95.84
2017-10-13T09:44:33.859Z,95.84
2017-10-13T09:45:33.863Z,95.84
2017-10-13T09:46:33.866Z,94.07
2017-10-13T09:47:33.870Z,93.69
2017-10-13T09:48:33.871Z,94.07
2017-10-13T09:49:33.877Z,94.60
2017-10-13T09:50:33.879Z,95.27
2017-10-13T09:51:33.884Z,95.56
2017-10-13T09:52:33.886Z,94.93
2017-10-13T09:53:33.888Z,94.07
2017-10-13T09:54:33.898Z,93.59
2017-10-13T09:55:33.898Z,94.12
2017-10-13T09:56:33.898Z,93.93
2017-10-13T09:57:33.903Z,93.83
2017-10-13T09:58:33.907Z,92.97
2017-10-13T09:59:33.911Z,92.87
2017-10-13T10:00:33.914Z,92.87
2017-10-13T10:01:33.916Z,92.68
2017-10-13T10:02:33.921Z,92.87
2017-10-13T10:03:33.923Z,92.77
2017-10-13T10:04:33.927Z,92.54
2017-10-13T10:05:33.935Z,91.82
2017-10-13T10:06:33.935Z,91.96
2017-10-13T10:07:33.938Z,90.81
2017-10-13T10:08:33.950Z,91.34
2017-10-13T10:09:33.946Z,92.39
2017-10-13T10:10:33.949Z,93.44
2017-10-13T10:11:33.954Z,93.06
2017-10-13T10:12:33.958Z,93.49
2017-10-13T10:13:33.962Z,93.83
2017-10-13T10:14:33.964Z,93.88
2017-10-13T10:15:33.970Z,94.07
2017-10-13T10:16:33.971Z,94.17
2017-10-13T10:17:33.977Z,94.84
2017-10-13T10:18:33.981Z,94.84
2017-10-13T10:19:33.985Z,94.55
2017-10-13T10:20:33.988Z,93.73
2017-10-13T10:21:33.993Z,92.82
2017-10-13T10:22:33.995Z,91.77
2017-10-13T10:23:34.001Z,91.91
2017-10-13T10:24:34.008Z,92.68
2017-10-13T10:25:34.007Z,93.26
2017-10-13T10:26:34.012Z,93.40
2017-10-13T10:27:34.017Z,92.15
2017-10-13T10:28:34.019Z,92.24
2017-10-13T10:29:34.023Z,91.57
2017-10-13T10:30:34.029Z,91.52
2017-10-13T10:31:34.032Z,91.62
2017-10-13T10:32:34.035Z,91.33
2017-10-13T10:33:34.044Z,91.14
2017-10-13T10:34:34.044Z,90.56
2017-10-13T10:35:34.047Z,90.33
2017-10-13T10:36:34.051Z,91.19
2017-10-13T10:37:34.055Z,91.00
2017-10-13T10:38:34.059Z,91.05
2017-10-13T10:39:34.063Z,89.70
2017-10-13T10:40:34.071Z,89.61
2017-10-13T10:41:34.071Z,90.37
2017-10-13T10:42:34.079Z,89.41
2017-10-13T10:43:34.082Z,89.99
2017-10-13T10:44:34.089Z,90.18
2017-10-13T10:45:34.093Z,90.85
2017-10-13T10:46:34.095Z,91.05
2017-10-13T10:47:34.098Z,90.75
2017-10-13T10:48:34.102Z,91.05
2017-10-13T10:49:34.113Z,89.79
2017-10-13T10:50:34.111Z,89.46
2017-10-13T10:51:34.116Z,89.07
2017-10-13T10:52:34.119Z,88.74
2017-10-13T10:53:34.125Z,89.61
2017-10-13T10:54:34.129Z,88.93
2017-10-13T10:55:34.132Z,89.03
2017-10-13T10:56:34.137Z,89.03
2017-10-13T10:57:34.142Z,89.26
2017-10-13T10:58:34.146Z,88.69
2017-10-13T10:59:34.151Z,88.49
2017-10-13T11:00:34.155Z,88.02
2017-10-13T11:01:34.166Z,87.05
2017-10-13T11:02:34.166Z,87.35
2017-10-13T11:03:34.168Z,87.54
2017-10-13T11:04:34.174Z,87.44
2017-10-13T11:05:34.178Z,87.58
2017-10-13T11:06:34.183Z,86.91
2017-10-13T11:07:34.187Z,86.48
2017-10-13T11:08:34.191Z,87.15
2017-10-13T11:09:34.195Z,87.15
2017-10-13T11:10:34.209Z,88.26
2017-10-13T11:11:34.206Z,87.59
2017-10-13T11:12:34.210Z,88.65
2017-10-13T11:13:34.214Z,89.03
2017-10-13T11:14:34.220Z,89.32
2017-10-13T11:15:34.223Z,89.61
2017-10-13T11:16:34.229Z,89.89
2017-10-13T11:17:34.234Z,89.22
2017-10-13T11:18:34.239Z,89.79
2017-10-13T11:19:34.241Z,89.22
2017-10-13T11:20:34.248Z,88.74
2017-10-13T11:21:34.251Z,88.35
2017-10-13T11:22:34.257Z,88.74
2017-10-13T11:23:34.261Z,87.73
2017-10-13T11:24:34.264Z,87.73
2017-10-13T11:25:34.270Z,86.29
2017-10-13T11:26:34.278Z,86.72
2017-10-13T11:27:34.277Z,86.33
2017-10-13T11:28:34.283Z,86.57
2017-10-13T11:29:34.288Z,85.99
2017-10-13T11:30:34.291Z,85.99
2017-10-13T11:31:34.296Z,85.03
2017-10-13T11:32:34.301Z,85.28
2017-10-13T11:33:34.307Z,85.28
2017-10-13T11:34:34.311Z,85.08
2017-10-13T11:35:34.316Z,84.41
2017-10-13T11:36:34.318Z,84.99
2017-10-13T11:37:34.325Z,84.51
2017-10-13T11:38:34.330Z,85.08
2017-10-13T11:39:34.336Z,86.05
2017-10-13T11:40:34.340Z,85.66
2017-10-13T11:41:34.343Z,85.66
2017-10-13T11:42:34.352Z,86.38
2017-10-13T11:43:34.362Z,86.00
2017-10-13T11:44:34.358Z,86.38
2017-10-13T11:45:34.363Z,87.25
2017-10-13T11:46:34.368Z,87.82
2017-10-13T11:47:34.374Z,87.05
2017-10-13T11:48:34.379Z,87.11
2017-10-13T11:49:34.384Z,86.77
2017-10-13T11:50:34.388Z,87.01
2017-10-13T11:51:34.393Z,87.21
2017-10-13T11:52:34.395Z,87.40
2017-10-13T11:53:34.401Z,87.88
2017-10-13T11:54:34.405Z,87.98
2017-10-13T11:55:34.409Z,87.82
2017-10-13T11:56:34.415Z,87.82
2017-10-13T11:57:34.429Z,87.54
2017-10-13T11:58:34.423Z,87.15
2017-10-13T11:59:34.427Z,86.68
2017-10-13T12:00:34.433Z,86.72
2017-10-13T12:01:34.441Z,85.75
2017-10-13T12:02:34.443Z,85.66
2017-10-13T12:03:34.447Z,85.95
2017-10-13T12:04:34.451Z,85.47
2017-10-13T12:05:34.455Z,85.41
2017-10-13T12:06:34.459Z,84.99
2017-10-13T12:07:34.463Z,84.55
2017-10-13T12:08:34.470Z,83.54
2017-10-13T12:09:34.472Z,84.64
2017-10-13T12:10:34.477Z,83.97
2017-10-13T12:11:34.485Z,84.31
2017-10-13T12:12:34.485Z,84.51
2017-10-13T12:13:34.492Z,84.45
2017-10-13T12:14:34.498Z,84.70
2017-10-13T12:15:34.506Z,85.08
2017-10-13T12:16:34.504Z,85.75
2017-10-13T12:17:34.512Z,85.95
2017-10-13T12:18:34.516Z,85.75
2017-10-13T12:19:34.520Z,86.24
2017-10-13T12:20:34.525Z,85.57
2017-10-13T12:21:34.530Z,85.85
2017-10-13T12:22:34.533Z,85.85
2017-10-13T12:23:34.539Z,85.95
2017-10-13T12:24:34.543Z,85.47
2017-10-13T12:25:34.549Z,85.95
2017-10-13T12:26:34.553Z,85.75
2017-10-13T12:27:34.557Z,85.13
2017-10-13T12:28:34.561Z,85.22
2017-10-13T12:29:34.567Z,85.32
2017-10-13T12:30:34.574Z,85.28
2017-10-13T12:31:34.576Z,85.80
2017-10-13T12:32:34.583Z,85.37
2017-10-13T12:33:34.589Z,85.71
2017-10-13T12:34:34.590Z,85.22
2017-10-13T12:35:34.596Z,85.75
2017-10-13T12:36:34.600Z,85.27
2017-10-13T12:37:34.609Z,85.27
2017-10-13T12:38:34.611Z,84.59
2017-10-13T12:39:34.616Z,83.44
2017-10-13T12:40:34.625Z,83.11
2017-10-13T12:41:34.625Z,83.69
2017-10-13T12:42:34.632Z,84.07
2017-10-13T12:43:34.637Z,84.01
2017-10-13T12:44:34.641Z,84.21
2017-10-13T12:45:34.647Z,83.39
2017-10-13T12:46:34.656Z,83.48
2017-10-13T12:47:34.656Z,82.61
2017-10-13T12:48:34.663Z,82.75
2017-10-13T12:49:34.667Z,82.42
2017-10-13T12:50:34.671Z,82.42
2017-10-13T12:51:34.677Z,82.14
2017-10-13T12:52:34.682Z,82.23
2017-10-13T12:53:34.687Z,83.06